sensor_id;sensor_type;location;lat;lon;timestamp;P1;durP1;ratioP1;P2;durP2;ratioP2
54177;SDS011;40085;53.004;6.770;2022-10-31T00:01:17;9.07;;;4.70;;
54177;SDS011;40085;53.004;6.770;2022-10-31T00:03:48;8.52;;;4.68;;
54177;SDS011;40085;53.004;6.770;2022-10-31T00:06:14;9.95;;;4.72;;
54177;SDS011;40085;53.004;6.770;2022-10-31T00:08:40;10.55;;;4.95;;
54177;SDS011;40085;53.004;6.770;2022-10-31T00:11:09;7.15;;;4.15;;
54177;SDS011;40085;53.004;6.770;2022-10-31T00:13:35;8.43;;;3.90;;
54177;SDS011;40085;53.004;6.770;2022-10-31T00:16:01;7.25;;;4.03;;
54177;SDS011;40085;53.004;6.770;2022-10-31T00:18:27;8.82;;;4.25;;
54177;SDS011;40085;53.004;6.770;2022-10-31T00:21:00;10.10;;;4.45;;
54177;SDS011;40085;53.004;6.770;2022-10-31T00:23:26;7.15;;;3.83;;
54177;SDS011;40085;53.004;6.770;2022-10-31T00:25:52;6.18;;;3.63;;
54177;SDS011;40085;53.004;6.770;2022-10-31T00:28:18;7.70;;;4.78;;
54177;SDS011;40085;53.004;6.770;2022-10-31T00:30:43;9.68;;;4.95;;
54177;SDS011;40085;53.004;6.770;2022-10-31T00:33:09;7.75;;;4.43;;
54177;SDS011;40085;53.004;6.770;2022-10-31T00:35:35;11.13;;;4.45;;
54177;SDS011;40085;53.004;6.770;2022-10-31T00:38:00;5.85;;;4.05;;
54177;SDS011;40085;53.004;6.770;2022-10-31T00:40:26;8.63;;;4.97;;
54177;SDS011;40085;53.004;6.770;2022-10-31T00:42:52;8.73;;;4.13;;
54177;SDS011;40085;53.004;6.770;2022-10-31T00:45:18;8.15;;;4.30;;
54177;SDS011;40085;53.004;6.770;2022-10-31T00:47:43;10.55;;;3.90;;
54177;SDS011;40085;53.004;6.770;2022-10-31T00:50:09;10.35;;;3.47;;
54177;SDS011;40085;53.004;6.770;2022-10-31T00:52:35;8.10;;;3.95;;
54177;SDS011;40085;53.004;6.770;2022-10-31T00:55:00;9.23;;;4.18;;
54177;SDS011;40085;53.004;6.770;2022-10-31T00:57:26;13.85;;;4.43;;
54177;SDS011;40085;53.004;6.770;2022-10-31T00:59:52;9.43;;;4.38;;
54177;SDS011;40085;53.004;6.770;2022-10-31T01:02:17;8.85;;;4.40;;
54177;SDS011;40085;53.004;6.770;2022-10-31T01:04:43;9.90;;;4.63;;
54177;SDS011;40085;53.004;6.770;2022-10-31T01:07:09;8.32;;;4.22;;
54177;SDS011;40085;53.004;6.770;2022-10-31T01:09:37;10.73;;;4.55;;
54177;SDS011;40085;53.004;6.770;2022-10-31T01:12:02;7.50;;;3.95;;
54177;SDS011;40085;53.004;6.770;2022-10-31T01:14:28;8.90;;;4.20;;
54177;SDS011;40085;53.004;6.770;2022-10-31T01:16:54;7.50;;;4.20;;
54177;SDS011;40085;53.004;6.770;2022-10-31T01:19:20;8.52;;;4.55;;
54177;SDS011;40085;53.004;6.770;2022-10-31T01:21:45;12.18;;;4.53;;
54177;SDS011;40085;53.004;6.770;2022-10-31T01:24:11;11.60;;;5.05;;
54177;SDS011;40085;53.004;6.770;2022-10-31T01:26:36;11.48;;;5.35;;
54177;SDS011;40085;53.004;6.770;2022-10-31T01:29:04;7.88;;;3.75;;
54177;SDS011;40085;53.004;6.770;2022-10-31T01:31:32;12.60;;;5.03;;
54177;SDS011;40085;53.004;6.770;2022-10-31T01:34:03;6.75;;;4.57;;
54177;SDS011;40085;53.004;6.770;2022-10-31T01:36:30;8.07;;;4.57;;
54177;SDS011;40085;53.004;6.770;2022-10-31T01:38:59;10.13;;;4.97;;
54177;SDS011;40085;53.004;6.770;2022-10-31T01:41:36;7.75;;;4.53;;
54177;SDS011;40085;53.004;6.770;2022-10-31T01:44:47;9.15;;;4.78;;
54177;SDS011;40085;53.004;6.770;2022-10-31T01:47:06;7.20;;;3.83;;
54177;SDS011;40085;53.004;6.770;2022-10-31T01:52:14;8.50;;;4.00;;
54177;SDS011;40085;53.004;6.770;2022-10-31T01:54:43;11.50;;;3.83;;
54177;SDS011;40085;53.004;6.770;2022-10-31T01:57:15;7.05;;;4.10;;
54177;SDS011;40085;53.004;6.770;2022-10-31T01:59:45;7.15;;;4.07;;
54177;SDS011;40085;53.004;6.770;2022-10-31T02:02:15;7.85;;;4.18;;
54177;SDS011;40085;53.004;6.770;2022-10-31T02:04:42;17.40;;;4.93;;
54177;SDS011;40085;53.004;6.770;2022-10-31T02:07:10;7.93;;;4.75;;
54177;SDS011;40085;53.004;6.770;2022-10-31T02:09:48;6.70;;;3.83;;
54177;SDS011;40085;53.004;6.770;2022-10-31T02:12:15;9.20;;;4.25;;
54177;SDS011;40085;53.004;6.770;2022-10-31T02:14:42;10.80;;;4.82;;
54177;SDS011;40085;53.004;6.770;2022-10-31T02:17:08;12.35;;;5.35;;
54177;SDS011;40085;53.004;6.770;2022-10-31T02:19:35;10.48;;;4.43;;
54177;SDS011;40085;53.004;6.770;2022-10-31T02:22:26;7.82;;;4.68;;
54177;SDS011;40085;53.004;6.770;2022-10-31T02:27:55;9.70;;;4.63;;
54177;SDS011;40085;53.004;6.770;2022-10-31T02:30:28;14.73;;;4.82;;
54177;SDS011;40085;53.004;6.770;2022-10-31T02:33:26;11.35;;;5.15;;
54177;SDS011;40085;53.004;6.770;2022-10-31T02:36:04;11.60;;;4.43;;
54177;SDS011;40085;53.004;6.770;2022-10-31T02:44:30;6.32;;;3.97;;
54177;SDS011;40085;53.004;6.770;2022-10-31T02:47:18;7.85;;;4.78;;
54177;SDS011;40085;53.004;6.770;2022-10-31T02:50:03;9.50;;;4.05;;
54177;SDS011;40085;53.004;6.770;2022-10-31T02:52:31;6.70;;;4.40;;
54177;SDS011;40085;53.004;6.770;2022-10-31T02:54:58;11.60;;;4.03;;
54177;SDS011;40085;53.004;6.770;2022-10-31T02:57:34;7.60;;;4.43;;
54177;SDS011;40085;53.004;6.770;2022-10-31T03:00:03;7.85;;;4.35;;
54177;SDS011;40085;53.004;6.770;2022-10-31T03:05:40;8.30;;;4.22;;
54177;SDS011;40085;53.004;6.770;2022-10-31T03:10:59;6.90;;;3.95;;
54177;SDS011;40085;53.004;6.770;2022-10-31T03:19:10;8.35;;;4.28;;
54177;SDS011;40085;53.004;6.770;2022-10-31T03:21:41;5.15;;;3.53;;
54177;SDS011;40085;53.004;6.770;2022-10-31T03:24:21;8.95;;;4.28;;
54177;SDS011;40085;53.004;6.770;2022-10-31T03:26:50;6.88;;;3.83;;
54177;SDS011;40085;53.004;6.770;2022-10-31T03:29:19;8.70;;;4.45;;
54177;SDS011;40085;53.004;6.770;2022-10-31T03:34:38;10.43;;;4.55;;
54177;SDS011;40085;53.004;6.770;2022-10-31T03:37:06;7.35;;;3.83;;
54177;SDS011;40085;53.004;6.770;2022-10-31T03:39:35;9.07;;;4.30;;
54177;SDS011;40085;53.004;6.770;2022-10-31T03:44:29;8.82;;;4.13;;
54177;SDS011;40085;53.004;6.770;2022-10-31T03:46:57;7.32;;;3.83;;
54177;SDS011;40085;53.004;6.770;2022-10-31T03:49:23;7.55;;;4.00;;
54177;SDS011;40085;53.004;6.770;2022-10-31T03:51:53;11.57;;;5.22;;
54177;SDS011;40085;53.004;6.770;2022-10-31T03:59:53;9.57;;;4.35;;
54177;SDS011;40085;53.004;6.770;2022-10-31T04:02:25;7.22;;;3.95;;
54177;SDS011;40085;53.004;6.770;2022-10-31T04:04:56;8.13;;;4.22;;
54177;SDS011;40085;53.004;6.770;2022-10-31T04:07:22;9.90;;;4.90;;
54177;SDS011;40085;53.004;6.770;2022-10-31T04:09:54;10.15;;;4.50;;
54177;SDS011;40085;53.004;6.770;2022-10-31T04:12:22;6.75;;;4.05;;
54177;SDS011;40085;53.004;6.770;2022-10-31T04:14:50;6.43;;;4.22;;
54177;SDS011;40085;53.004;6.770;2022-10-31T04:17:18;8.38;;;3.88;;
54177;SDS011;40085;53.004;6.770;2022-10-31T04:19:46;7.80;;;4.35;;
54177;SDS011;40085;53.004;6.770;2022-10-31T04:22:12;8.65;;;4.28;;
54177;SDS011;40085;53.004;6.770;2022-10-31T04:24:38;8.75;;;5.00;;
54177;SDS011;40085;53.004;6.770;2022-10-31T04:27:05;11.18;;;4.95;;
54177;SDS011;40085;53.004;6.770;2022-10-31T04:29:31;8.05;;;4.35;;
54177;SDS011;40085;53.004;6.770;2022-10-31T04:31:57;10.48;;;4.75;;
54177;SDS011;40085;53.004;6.770;2022-10-31T04:34:22;10.18;;;5.25;;
54177;SDS011;40085;53.004;6.770;2022-10-31T04:36:48;7.65;;;4.93;;
54177;SDS011;40085;53.004;6.770;2022-10-31T04:39:13;7.78;;;4.40;;
54177;SDS011;40085;53.004;6.770;2022-10-31T04:41:39;10.65;;;4.68;;
54177;SDS011;40085;53.004;6.770;2022-10-31T04:44:05;8.85;;;5.35;;
54177;SDS011;40085;53.004;6.770;2022-10-31T04:46:30;10.27;;;5.25;;
54177;SDS011;40085;53.004;6.770;2022-10-31T04:48:56;9.90;;;5.50;;
54177;SDS011;40085;53.004;6.770;2022-10-31T04:51:22;8.70;;;4.97;;
54177;SDS011;40085;53.004;6.770;2022-10-31T04:53:48;5.50;;;3.83;;
54177;SDS011;40085;53.004;6.770;2022-10-31T04:56:13;12.50;;;4.55;;
54177;SDS011;40085;53.004;6.770;2022-10-31T04:58:39;10.68;;;4.93;;
54177;SDS011;40085;53.004;6.770;2022-10-31T05:01:05;11.15;;;4.40;;
54177;SDS011;40085;53.004;6.770;2022-10-31T05:03:30;8.68;;;4.60;;
54177;SDS011;40085;53.004;6.770;2022-10-31T05:05:56;7.82;;;4.60;;
54177;SDS011;40085;53.004;6.770;2022-10-31T05:08:22;8.85;;;4.47;;
54177;SDS011;40085;53.004;6.770;2022-10-31T05:10:47;8.57;;;4.57;;
54177;SDS011;40085;53.004;6.770;2022-10-31T05:13:13;8.80;;;5.05;;
54177;SDS011;40085;53.004;6.770;2022-10-31T05:15:40;5.85;;;3.85;;
54177;SDS011;40085;53.004;6.770;2022-10-31T05:18:06;10.25;;;4.63;;
54177;SDS011;40085;53.004;6.770;2022-10-31T05:20:32;9.73;;;4.88;;
54177;SDS011;40085;53.004;6.770;2022-10-31T05:22:58;8.10;;;4.32;;
54177;SDS011;40085;53.004;6.770;2022-10-31T05:25:25;6.30;;;3.90;;
54177;SDS011;40085;53.004;6.770;2022-10-31T05:27:51;10.07;;;4.95;;
54177;SDS011;40085;53.004;6.770;2022-10-31T05:30:19;10.55;;;5.53;;
54177;SDS011;40085;53.004;6.770;2022-10-31T05:32:47;11.02;;;4.82;;
54177;SDS011;40085;53.004;6.770;2022-10-31T05:35:21;7.70;;;4.50;;
54177;SDS011;40085;53.004;6.770;2022-10-31T05:37:48;12.50;;;4.70;;
54177;SDS011;40085;53.004;6.770;2022-10-31T05:40:15;9.65;;;4.97;;
54177;SDS011;40085;53.004;6.770;2022-10-31T05:42:42;9.65;;;4.88;;
54177;SDS011;40085;53.004;6.770;2022-10-31T05:45:09;7.38;;;4.55;;
54177;SDS011;40085;53.004;6.770;2022-10-31T05:47:36;6.40;;;4.22;;
54177;SDS011;40085;53.004;6.770;2022-10-31T05:50:02;10.50;;;4.63;;
54177;SDS011;40085;53.004;6.770;2022-10-31T05:52:28;7.35;;;3.78;;
54177;SDS011;40085;53.004;6.770;2022-10-31T05:54:54;7.68;;;4.40;;
54177;SDS011;40085;53.004;6.770;2022-10-31T05:57:19;7.03;;;4.57;;
54177;SDS011;40085;53.004;6.770;2022-10-31T05:59:45;9.98;;;5.13;;
54177;SDS011;40085;53.004;6.770;2022-10-31T06:02:11;10.65;;;5.30;;
54177;SDS011;40085;53.004;6.770;2022-10-31T06:04:36;9.07;;;4.75;;
54177;SDS011;40085;53.004;6.770;2022-10-31T06:07:02;9.60;;;4.68;;
54177;SDS011;40085;53.004;6.770;2022-10-31T06:09:28;10.68;;;5.00;;
54177;SDS011;40085;53.004;6.770;2022-10-31T06:11:53;11.65;;;5.60;;
54177;SDS011;40085;53.004;6.770;2022-10-31T06:14:19;11.35;;;5.22;;
54177;SDS011;40085;53.004;6.770;2022-10-31T06:16:45;10.23;;;5.13;;
54177;SDS011;40085;53.004;6.770;2022-10-31T06:19:10;7.95;;;5.20;;
54177;SDS011;40085;53.004;6.770;2022-10-31T06:21:36;9.07;;;4.82;;
54177;SDS011;40085;53.004;6.770;2022-10-31T06:24:02;12.82;;;5.60;;
54177;SDS011;40085;53.004;6.770;2022-10-31T06:26:28;8.25;;;5.05;;
54177;SDS011;40085;53.004;6.770;2022-10-31T06:28:53;10.63;;;4.78;;
54177;SDS011;40085;53.004;6.770;2022-10-31T06:31:19;9.15;;;5.30;;
54177;SDS011;40085;53.004;6.770;2022-10-31T06:33:45;13.00;;;6.05;;
54177;SDS011;40085;53.004;6.770;2022-10-31T06:36:10;12.25;;;6.18;;
54177;SDS011;40085;53.004;6.770;2022-10-31T06:38:36;10.85;;;5.22;;
54177;SDS011;40085;53.004;6.770;2022-10-31T06:41:02;10.13;;;5.60;;
54177;SDS011;40085;53.004;6.770;2022-10-31T06:43:29;9.50;;;5.57;;
54177;SDS011;40085;53.004;6.770;2022-10-31T06:45:55;9.82;;;5.63;;
54177;SDS011;40085;53.004;6.770;2022-10-31T06:48:21;9.90;;;4.85;;
54177;SDS011;40085;53.004;6.770;2022-10-31T06:50:47;11.15;;;5.47;;
54177;SDS011;40085;53.004;6.770;2022-10-31T06:53:13;8.63;;;5.35;;
54177;SDS011;40085;53.004;6.770;2022-10-31T06:55:39;17.95;;;5.85;;
54177;SDS011;40085;53.004;6.770;2022-10-31T06:58:06;7.95;;;4.63;;
54177;SDS011;40085;53.004;6.770;2022-10-31T07:00:33;8.65;;;4.53;;
54177;SDS011;40085;53.004;6.770;2022-10-31T07:02:59;13.77;;;5.25;;
54177;SDS011;40085;53.004;6.770;2022-10-31T07:05:30;12.63;;;5.68;;
54177;SDS011;40085;53.004;6.770;2022-10-31T07:07:57;6.13;;;4.55;;
54177;SDS011;40085;53.004;6.770;2022-10-31T07:10:24;6.65;;;4.85;;
54177;SDS011;40085;53.004;6.770;2022-10-31T07:12:55;6.88;;;4.97;;
54177;SDS011;40085;53.004;6.770;2022-10-31T07:15:22;10.00;;;4.73;;
54177;SDS011;40085;53.004;6.770;2022-10-31T07:17:48;15.23;;;5.68;;
54177;SDS011;40085;53.004;6.770;2022-10-31T07:20:14;14.32;;;4.88;;
54177;SDS011;40085;53.004;6.770;2022-10-31T07:22:40;12.57;;;5.35;;
54177;SDS011;40085;53.004;6.770;2022-10-31T07:25:05;8.75;;;4.80;;
54177;SDS011;40085;53.004;6.770;2022-10-31T07:27:35;9.40;;;5.10;;
54177;SDS011;40085;53.004;6.770;2022-10-31T07:30:02;8.53;;;5.23;;
54177;SDS011;40085;53.004;6.770;2022-10-31T07:32:36;7.90;;;5.07;;
54177;SDS011;40085;53.004;6.770;2022-10-31T07:35:14;10.93;;;5.13;;
54177;SDS011;40085;53.004;6.770;2022-10-31T07:37:41;7.80;;;4.32;;
54177;SDS011;40085;53.004;6.770;2022-10-31T07:40:07;10.15;;;5.45;;
54177;SDS011;40085;53.004;6.770;2022-10-31T07:42:44;12.02;;;5.90;;
54177;SDS011;40085;53.004;6.770;2022-10-31T07:45:12;8.93;;;5.22;;
54177;SDS011;40085;53.004;6.770;2022-10-31T07:47:48;7.47;;;5.13;;
54177;SDS011;40085;53.004;6.770;2022-10-31T07:50:19;9.35;;;5.93;;
54177;SDS011;40085;53.004;6.770;2022-10-31T07:53:02;7.65;;;5.05;;
54177;SDS011;40085;53.004;6.770;2022-10-31T07:55:32;9.57;;;5.30;;
54177;SDS011;40085;53.004;6.770;2022-10-31T07:57:59;7.97;;;5.55;;
54177;SDS011;40085;53.004;6.770;2022-10-31T08:00:26;8.80;;;5.45;;
54177;SDS011;40085;53.004;6.770;2022-10-31T08:03:12;8.57;;;5.35;;
54177;SDS011;40085;53.004;6.770;2022-10-31T08:05:39;10.40;;;5.60;;
54177;SDS011;40085;53.004;6.770;2022-10-31T08:08:06;7.00;;;5.10;;
54177;SDS011;40085;53.004;6.770;2022-10-31T08:10:33;8.32;;;5.55;;
54177;SDS011;40085;53.004;6.770;2022-10-31T08:13:03;11.15;;;5.80;;
54177;SDS011;40085;53.004;6.770;2022-10-31T08:15:31;10.02;;;5.50;;
54177;SDS011;40085;53.004;6.770;2022-10-31T08:17:58;11.35;;;5.53;;
54177;SDS011;40085;53.004;6.770;2022-10-31T08:20:24;9.00;;;5.72;;
54177;SDS011;40085;53.004;6.770;2022-10-31T08:22:54;8.35;;;5.25;;
54177;SDS011;40085;53.004;6.770;2022-10-31T08:25:24;8.77;;;5.70;;
54177;SDS011;40085;53.004;6.770;2022-10-31T08:27:51;9.02;;;5.20;;
54177;SDS011;40085;53.004;6.770;2022-10-31T08:30:18;9.13;;;5.75;;
54177;SDS011;40085;53.004;6.770;2022-10-31T08:32:45;9.82;;;5.68;;
54177;SDS011;40085;53.004;6.770;2022-10-31T08:35:10;10.45;;;5.65;;
54177;SDS011;40085;53.004;6.770;2022-10-31T08:37:36;10.68;;;5.55;;
54177;SDS011;40085;53.004;6.770;2022-10-31T08:40:02;8.77;;;5.82;;
54177;SDS011;40085;53.004;6.770;2022-10-31T08:42:28;8.52;;;5.43;;
54177;SDS011;40085;53.004;6.770;2022-10-31T08:44:54;8.40;;;5.45;;
54177;SDS011;40085;53.004;6.770;2022-10-31T08:47:20;8.90;;;5.45;;
54177;SDS011;40085;53.004;6.770;2022-10-31T08:49:45;8.73;;;6.53;;
54177;SDS011;40085;53.004;6.770;2022-10-31T08:52:11;11.00;;;6.07;;
54177;SDS011;40085;53.004;6.770;2022-10-31T08:54:36;13.20;;;6.38;;
54177;SDS011;40085;53.004;6.770;2022-10-31T08:57:02;9.90;;;5.75;;
54177;SDS011;40085;53.004;6.770;2022-10-31T08:59:28;12.15;;;6.40;;
54177;SDS011;40085;53.004;6.770;2022-10-31T09:01:53;9.43;;;5.63;;
54177;SDS011;40085;53.004;6.770;2022-10-31T09:04:19;8.82;;;5.72;;
54177;SDS011;40085;53.004;6.770;2022-10-31T09:06:45;10.82;;;5.63;;
54177;SDS011;40085;53.004;6.770;2022-10-31T09:09:10;11.18;;;6.15;;
54177;SDS011;40085;53.004;6.770;2022-10-31T09:11:36;11.38;;;6.28;;
54177;SDS011;40085;53.004;6.770;2022-10-31T09:14:02;12.10;;;7.03;;
54177;SDS011;40085;53.004;6.770;2022-10-31T09:16:27;13.50;;;6.85;;
54177;SDS011;40085;53.004;6.770;2022-10-31T09:18:53;12.90;;;6.82;;
54177;SDS011;40085;53.004;6.770;2022-10-31T09:21:19;13.32;;;6.78;;
54177;SDS011;40085;53.004;6.770;2022-10-31T09:23:44;11.63;;;6.80;;
54177;SDS011;40085;53.004;6.770;2022-10-31T09:26:10;15.85;;;6.63;;
54177;SDS011;40085;53.004;6.770;2022-10-31T09:28:35;11.48;;;6.78;;
54177;SDS011;40085;53.004;6.770;2022-10-31T09:31:01;18.90;;;7.07;;
54177;SDS011;40085;53.004;6.770;2022-10-31T09:33:27;12.48;;;7.13;;
54177;SDS011;40085;53.004;6.770;2022-10-31T09:35:52;11.13;;;6.57;;
54177;SDS011;40085;53.004;6.770;2022-10-31T09:38:19;9.38;;;5.47;;
54177;SDS011;40085;53.004;6.770;2022-10-31T09:45:56;8.90;;;6.03;;
54177;SDS011;40085;53.004;6.770;2022-10-31T09:51:44;10.27;;;5.50;;
54177;SDS011;40085;53.004;6.770;2022-10-31T09:54:27;9.48;;;6.15;;
54177;SDS011;40085;53.004;6.770;2022-10-31T09:56:59;10.48;;;5.93;;
54177;SDS011;40085;53.004;6.770;2022-10-31T09:59:37;11.20;;;5.10;;
54177;SDS011;40085;53.004;6.770;2022-10-31T10:02:09;10.50;;;5.13;;
54177;SDS011;40085;53.004;6.770;2022-10-31T10:04:59;13.30;;;5.60;;
54177;SDS011;40085;53.004;6.770;2022-10-31T10:10:55;10.90;;;5.33;;
54177;SDS011;40085;53.004;6.770;2022-10-31T10:16:14;9.40;;;4.88;;
54177;SDS011;40085;53.004;6.770;2022-10-31T10:19:11;14.60;;;5.30;;
54177;SDS011;40085;53.004;6.770;2022-10-31T10:32:35;12.70;;;5.57;;
54177;SDS011;40085;53.004;6.770;2022-10-31T10:35:24;9.80;;;5.57;;
54177;SDS011;40085;53.004;6.770;2022-10-31T10:40:53;9.15;;;5.68;;
54177;SDS011;40085;53.004;6.770;2022-10-31T10:43:23;7.80;;;4.63;;
54177;SDS011;40085;53.004;6.770;2022-10-31T10:52:10;13.48;;;5.25;;
54177;SDS011;40085;53.004;6.770;2022-10-31T10:57:00;13.15;;;5.72;;
54177;SDS011;40085;53.004;6.770;2022-10-31T10:59:36;9.57;;;5.03;;
54177;SDS011;40085;53.004;6.770;2022-10-31T11:02:03;8.05;;;4.28;;
54177;SDS011;40085;53.004;6.770;2022-10-31T11:04:40;7.53;;;4.68;;
54177;SDS011;40085;53.004;6.770;2022-10-31T11:07:08;9.43;;;4.45;;
54177;SDS011;40085;53.004;6.770;2022-10-31T11:09:35;7.63;;;3.95;;
54177;SDS011;40085;53.004;6.770;2022-10-31T11:14:51;7.57;;;3.60;;
54177;SDS011;40085;53.004;6.770;2022-10-31T11:17:30;6.38;;;3.83;;
54177;SDS011;40085;53.004;6.770;2022-10-31T11:22:40;9.13;;;3.63;;
54177;SDS011;40085;53.004;6.770;2022-10-31T11:25:21;6.55;;;3.40;;
54177;SDS011;40085;53.004;6.770;2022-10-31T11:28:03;6.78;;;3.60;;
54177;SDS011;40085;53.004;6.770;2022-10-31T11:30:53;6.50;;;3.47;;
54177;SDS011;40085;53.004;6.770;2022-10-31T11:33:26;10.85;;;3.78;;
54177;SDS011;40085;53.004;6.770;2022-10-31T11:35:56;5.72;;;3.00;;
54177;SDS011;40085;53.004;6.770;2022-10-31T11:38:24;6.63;;;3.38;;
54177;SDS011;40085;53.004;6.770;2022-10-31T11:40:57;8.07;;;3.83;;
54177;SDS011;40085;53.004;6.770;2022-10-31T11:43:30;6.55;;;3.65;;
54177;SDS011;40085;53.004;6.770;2022-10-31T11:45:55;8.48;;;3.33;;
54177;SDS011;40085;53.004;6.770;2022-10-31T11:48:22;7.50;;;4.57;;
54177;SDS011;40085;53.004;6.770;2022-10-31T11:50:50;8.85;;;3.90;;
54177;SDS011;40085;53.004;6.770;2022-10-31T11:56:03;7.07;;;3.92;;
54177;SDS011;40085;53.004;6.770;2022-10-31T11:58:37;8.18;;;4.05;;
54177;SDS011;40085;53.004;6.770;2022-10-31T12:01:03;6.53;;;4.22;;
54177;SDS011;40085;53.004;6.770;2022-10-31T12:09:01;11.52;;;4.60;;
54177;SDS011;40085;53.004;6.770;2022-10-31T12:19:48;8.38;;;4.13;;
54177;SDS011;40085;53.004;6.770;2022-10-31T12:22:22;7.65;;;3.75;;
54177;SDS011;40085;53.004;6.770;2022-10-31T12:27:51;9.75;;;3.88;;
54177;SDS011;40085;53.004;6.770;2022-10-31T12:30:28;6.32;;;3.78;;
54177;SDS011;40085;53.004;6.770;2022-10-31T12:40:39;7.57;;;3.42;;
54177;SDS011;40085;53.004;6.770;2022-10-31T12:45:55;9.68;;;3.30;;
54177;SDS011;40085;53.004;6.770;2022-10-31T12:48:37;8.02;;;3.67;;
54177;SDS011;40085;53.004;6.770;2022-10-31T12:56:55;9.75;;;3.70;;
54177;SDS011;40085;53.004;6.770;2022-10-31T12:59:39;5.57;;;3.10;;
54177;SDS011;40085;53.004;6.770;2022-10-31T13:07:20;8.80;;;3.35;;
54177;SDS011;40085;53.004;6.770;2022-10-31T13:09:57;6.50;;;3.50;;
54177;SDS011;40085;53.004;6.770;2022-10-31T13:12:27;6.65;;;3.40;;
54177;SDS011;40085;53.004;6.770;2022-10-31T13:14:57;5.32;;;3.05;;
54177;SDS011;40085;53.004;6.770;2022-10-31T13:17:33;8.10;;;3.22;;
54177;SDS011;40085;53.004;6.770;2022-10-31T13:26:06;7.00;;;3.33;;
54177;SDS011;40085;53.004;6.770;2022-10-31T13:31:10;6.72;;;3.38;;
54177;SDS011;40085;53.004;6.770;2022-10-31T13:33:38;7.13;;;3.65;;
54177;SDS011;40085;53.004;6.770;2022-10-31T13:36:29;6.10;;;3.33;;
54177;SDS011;40085;53.004;6.770;2022-10-31T13:38:59;7.30;;;2.88;;
54177;SDS011;40085;53.004;6.770;2022-10-31T13:41:49;10.45;;;4.03;;
54177;SDS011;40085;53.004;6.770;2022-10-31T13:46:44;7.30;;;2.70;;
54177;SDS011;40085;53.004;6.770;2022-10-31T13:54:46;4.85;;;3.33;;
54177;SDS011;40085;53.004;6.770;2022-10-31T13:59:54;8.23;;;2.80;;
54177;SDS011;40085;53.004;6.770;2022-10-31T14:02:25;5.22;;;2.65;;
54177;SDS011;40085;53.004;6.770;2022-10-31T14:04:56;8.88;;;2.63;;
54177;SDS011;40085;53.004;6.770;2022-10-31T14:07:25;9.18;;;2.95;;
54177;SDS011;40085;53.004;6.770;2022-10-31T14:12:34;5.20;;;2.75;;
54177;SDS011;40085;53.004;6.770;2022-10-31T14:15:24;5.93;;;2.80;;
54177;SDS011;40085;53.004;6.770;2022-10-31T14:23:11;6.82;;;2.88;;
54177;SDS011;40085;53.004;6.770;2022-10-31T14:26:18;14.35;;;2.60;;
54177;SDS011;40085;53.004;6.770;2022-10-31T14:28:54;6.07;;;2.17;;
54177;SDS011;40085;53.004;6.770;2022-10-31T14:53:21;6.78;;;1.90;;
54177;SDS011;40085;53.004;6.770;2022-10-31T14:55:52;2.75;;;1.67;;
54177;SDS011;40085;53.004;6.770;2022-10-31T14:58:24;5.75;;;2.20;;
54177;SDS011;40085;53.004;6.770;2022-10-31T15:00:52;4.03;;;1.65;;
54177;SDS011;40085;53.004;6.770;2022-10-31T15:03:23;3.03;;;1.70;;
54177;SDS011;40085;53.004;6.770;2022-10-31T15:05:51;3.95;;;1.55;;
54177;SDS011;40085;53.004;6.770;2022-10-31T15:08:34;2.80;;;1.70;;
54177;SDS011;40085;53.004;6.770;2022-10-31T15:13:56;3.42;;;1.50;;
54177;SDS011;40085;53.004;6.770;2022-10-31T15:16:26;2.20;;;1.40;;
54177;SDS011;40085;53.004;6.770;2022-10-31T15:18:57;2.25;;;1.27;;
54177;SDS011;40085;53.004;6.770;2022-10-31T15:21:26;2.42;;;1.35;;
54177;SDS011;40085;53.004;6.770;2022-10-31T15:23:56;3.80;;;1.50;;
54177;SDS011;40085;53.004;6.770;2022-10-31T15:26:34;2.35;;;1.35;;
54177;SDS011;40085;53.004;6.770;2022-10-31T15:29:10;2.50;;;0.98;;
54177;SDS011;40085;53.004;6.770;2022-10-31T15:31:37;3.42;;;1.42;;
54177;SDS011;40085;53.004;6.770;2022-10-31T15:34:05;1.98;;;1.27;;
54177;SDS011;40085;53.004;6.770;2022-10-31T15:36:41;2.92;;;1.10;;
54177;SDS011;40085;53.004;6.770;2022-10-31T15:39:11;3.13;;;1.70;;
54177;SDS011;40085;53.004;6.770;2022-10-31T15:41:53;3.17;;;1.40;;
54177;SDS011;40085;53.004;6.770;2022-10-31T15:44:22;6.55;;;1.77;;
54177;SDS011;40085;53.004;6.770;2022-10-31T15:51:54;5.18;;;1.73;;
54177;SDS011;40085;53.004;6.770;2022-10-31T15:54:20;5.95;;;2.13;;
54177;SDS011;40085;53.004;6.770;2022-10-31T15:56:46;8.95;;;2.03;;
54177;SDS011;40085;53.004;6.770;2022-10-31T15:59:22;5.10;;;2.42;;
54177;SDS011;40085;53.004;6.770;2022-10-31T16:02:03;5.05;;;2.58;;
54177;SDS011;40085;53.004;6.770;2022-10-31T16:04:36;7.13;;;2.47;;
54177;SDS011;40085;53.004;6.770;2022-10-31T16:07:11;6.63;;;3.95;;
54177;SDS011;40085;53.004;6.770;2022-10-31T16:12:21;5.60;;;3.15;;
54177;SDS011;40085;53.004;6.770;2022-10-31T16:14:48;6.88;;;3.15;;
54177;SDS011;40085;53.004;6.770;2022-10-31T16:17:16;5.68;;;3.17;;
54177;SDS011;40085;53.004;6.770;2022-10-31T16:19:47;7.82;;;3.83;;
54177;SDS011;40085;53.004;6.770;2022-10-31T16:27:36;8.98;;;3.78;;
54177;SDS011;40085;53.004;6.770;2022-10-31T16:30:25;9.23;;;3.90;;
54177;SDS011;40085;53.004;6.770;2022-10-31T16:32:56;9.02;;;3.58;;
54177;SDS011;40085;53.004;6.770;2022-10-31T16:35:36;7.45;;;4.53;;
54177;SDS011;40085;53.004;6.770;2022-10-31T16:38:03;6.50;;;4.05;;
54177;SDS011;40085;53.004;6.770;2022-10-31T16:40:29;11.60;;;4.70;;
54177;SDS011;40085;53.004;6.770;2022-10-31T16:42:57;9.02;;;4.40;;
54177;SDS011;40085;53.004;6.770;2022-10-31T16:45:25;9.25;;;3.70;;
54177;SDS011;40085;53.004;6.770;2022-10-31T16:47:52;10.07;;;4.97;;
54177;SDS011;40085;53.004;6.770;2022-10-31T16:50:26;9.90;;;4.35;;
54177;SDS011;40085;53.004;6.770;2022-10-31T16:52:52;7.45;;;3.97;;
54177;SDS011;40085;53.004;6.770;2022-10-31T16:55:19;9.02;;;4.65;;
54177;SDS011;40085;53.004;6.770;2022-10-31T16:57:49;9.95;;;5.32;;
54177;SDS011;40085;53.004;6.770;2022-10-31T17:00:18;10.43;;;4.78;;
54177;SDS011;40085;53.004;6.770;2022-10-31T17:02:45;11.15;;;5.50;;
54177;SDS011;40085;53.004;6.770;2022-10-31T17:05:14;10.57;;;5.07;;
54177;SDS011;40085;53.004;6.770;2022-10-31T17:07:41;9.23;;;5.07;;
54177;SDS011;40085;53.004;6.770;2022-10-31T17:10:08;9.02;;;4.28;;
54177;SDS011;40085;53.004;6.770;2022-10-31T17:12:35;13.45;;;5.47;;
54177;SDS011;40085;53.004;6.770;2022-10-31T17:15:01;8.57;;;4.20;;
54177;SDS011;40085;53.004;6.770;2022-10-31T17:17:27;9.93;;;4.82;;
54177;SDS011;40085;53.004;6.770;2022-10-31T17:19:53;12.77;;;5.30;;
54177;SDS011;40085;53.004;6.770;2022-10-31T17:22:18;9.18;;;5.25;;
54177;SDS011;40085;53.004;6.770;2022-10-31T17:24:44;12.65;;;4.95;;
54177;SDS011;40085;53.004;6.770;2022-10-31T17:27:10;13.15;;;5.90;;
54177;SDS011;40085;53.004;6.770;2022-10-31T17:29:36;11.80;;;5.47;;
54177;SDS011;40085;53.004;6.770;2022-10-31T17:32:02;12.05;;;5.95;;
54177;SDS011;40085;53.004;6.770;2022-10-31T17:34:28;13.07;;;6.35;;
54177;SDS011;40085;53.004;6.770;2022-10-31T17:36:54;11.07;;;6.38;;
54177;SDS011;40085;53.004;6.770;2022-10-31T17:39:20;13.52;;;6.03;;
54177;SDS011;40085;53.004;6.770;2022-10-31T17:41:48;13.93;;;7.38;;
54177;SDS011;40085;53.004;6.770;2022-10-31T17:44:15;18.50;;;6.45;;
54177;SDS011;40085;53.004;6.770;2022-10-31T17:46:41;12.00;;;6.60;;
54177;SDS011;40085;53.004;6.770;2022-10-31T17:49:09;12.02;;;6.05;;
54177;SDS011;40085;53.004;6.770;2022-10-31T17:51:36;15.32;;;6.65;;
54177;SDS011;40085;53.004;6.770;2022-10-31T17:54:02;13.48;;;7.25;;
54177;SDS011;40085;53.004;6.770;2022-10-31T17:56:30;17.05;;;7.40;;
54177;SDS011;40085;53.004;6.770;2022-10-31T17:58:55;19.35;;;8.32;;